Time;durP1;ratioP1;P1;durP2;ratioP2;P2;SDS_P1;SDS_P2;PMS_P1;PMS_P2;Temp;Humidity;BMP_temperature;BMP_pressure;BME280_temperature;BME280_humidity;BME280_pressure;Samples;Min_cycle;Max_cycle;Signal;HPM_P1;HPM_P2
2021/11/16 00:01:51;;;;;;;;;;;6.90;71.20;;;;;;5041650;28;87619;-65
2021/11/16 00:04:17;;;;;;;;;;;6.90;71.00;;;;;;5043270;28;87304;-65
2021/11/16 00:06:46;;;;;;;;;;;6.80;71.20;;;;;;5041396;28;87790;-65
2021/11/16 00:09:12;;;;;;;;;;;6.80;71.20;;;;;;5039525;27;88703;-65
2021/11/16 00:11:37;;;;;;;;;;;6.90;71.40;;;;;;5043217;28;87220;-65
2021/11/16 00:14:03;;;;;;;;;;;6.90;71.30;;;;;;5041666;28;87499;-65
2021/11/16 00:16:29;;;;;;;;;;;6.90;71.30;;;;;;5042630;27;87151;-65
2021/11/16 00:19:02;;;;;;;;;;;6.90;71.30;;;;;;5042699;27;87458;-66
2021/11/16 00:21:28;;;;;;;;;;;6.90;71.20;;;;;;5039835;27;89164;-65
2021/11/16 00:23:57;;;;;;;;;;;6.90;71.20;;;;;;5039307;28;87130;-65
2021/11/16 00:26:23;;;;;;;;;;;6.90;71.40;;;;;;5041119;28;87689;-65
2021/11/16 00:28:49;;;;;;;;;;;6.90;71.40;;;;;;5040644;27;88163;-65
2021/11/16 00:31:14;;;;;;;;;;;6.80;71.40;;;;;;5040958;27;87158;-65
2021/11/16 00:33:40;;;;;;;;;;;6.90;71.40;;;;;;5043467;27;87123;-65
2021/11/16 00:36:06;;;;;;;;;;;6.80;71.30;;;;;;5041299;27;87194;-65
2021/11/16 00:38:34;;;;;;;;;;;6.80;71.50;;;;;;5043165;28;87579;-65
2021/11/16 00:40:59;;;;;;;;;;;6.80;71.30;;;;;;5039944;27;89630;-65
2021/11/16 00:43:25;;;;;;;;;;;6.80;71.40;;;;;;5040768;27;87114;-65
2021/11/16 00:45:51;;;;;;;;;;;6.80;71.50;;;;;;5040095;28;88150;-65
2021/11/16 00:48:17;;;;;;;;;;;6.80;71.40;;;;;;5040388;28;87505;-65
2021/11/16 00:50:45;;;;;;;;;;;6.80;71.50;;;;;;5039575;27;87194;-65
2021/11/16 00:53:11;;;;;;;;;;;6.80;71.30;;;;;;5039191;27;88683;-65
2021/11/16 00:55:37;;;;;;;;;;;6.80;71.40;;;;;;5040243;28;88024;-65
2021/11/16 00:58:02;;;;;;;;;;;6.80;71.50;;;;;;5038184;28;88286;-65
2021/11/16 01:00:28;;;;;;;;;;;6.80;71.40;;;;;;5038547;27;88278;-65
2021/11/16 01:02:54;;;;;;;;;;;6.80;71.70;;;;;;5040358;28;86395;-65
2021/11/16 01:05:20;;;;;;;;;;;6.80;71.60;;;;;;5040118;28;87212;-65
2021/11/16 01:07:45;;;;;;;;;;;6.80;71.40;;;;;;5040444;28;87506;-65
2021/11/16 01:10:12;;;;;;;;;;;6.80;71.40;;;;;;5040458;28;88124;-65
2021/11/16 01:12:40;;;;;;;;;;;6.80;71.40;;;;;;5040318;28;88104;-65
2021/11/16 01:15:07;;;;;;;;;;;6.80;71.60;;;;;;5037086;27;87468;-65
2021/11/16 01:17:33;;;;;;;;;;;6.80;71.60;;;;;;5045294;27;87141;-65
2021/11/16 01:19:59;;;;;;;;;;;6.80;71.40;;;;;;5041985;27;88222;-65
2021/11/16 01:22:24;;;;;;;;;;;6.80;71.50;;;;;;5042447;27;87106;-65
2021/11/16 01:24:50;;;;;;;;;;;6.80;71.50;;;;;;5041687;28;88583;-65
2021/11/16 01:27:18;;;;;;;;;;;6.80;71.70;;;;;;5042494;27;87424;-65
2021/11/16 01:29:49;;;;;;;;;;;6.80;71.80;;;;;;5039455;28;87126;-65
2021/11/16 01:32:27;;;;;;;;;;;6.80;71.60;;;;;;5040803;27;87197;-65
2021/11/16 01:34:53;;;;;;;;;;;6.80;71.80;;;;;;5037301;28;89726;-65
2021/11/16 01:37:19;;;;;;;;;;;6.80;71.60;;;;;;5038336;27;87177;-65
2021/11/16 01:39:45;;;;;;;;;;;6.80;71.60;;;;;;5041608;27;87617;-65
2021/11/16 01:42:10;;;;;;;;;;;6.70;71.70;;;;;;5040117;27;87293;-65
2021/11/16 01:44:36;;;;;;;;;;;6.80;71.70;;;;;;5040021;28;87815;-65
2021/11/16 01:47:02;;;;;;;;;;;6.80;71.90;;;;;;5040088;27;87841;-65
2021/11/16 01:49:28;;;;;;;;;;;6.80;71.80;;;;;;5041451;27;87118;-65
2021/11/16 01:51:53;;;;;;;;;;;6.80;71.80;;;;;;5040332;27;87531;-65
2021/11/16 01:54:19;;;;;;;;;;;6.70;71.80;;;;;;5036419;27;89771;-65
2021/11/16 01:56:45;;;;;;;;;;;6.70;71.80;;;;;;5038448;28;87748;-65
2021/11/16 01:59:11;;;;;;;;;;;6.70;71.80;;;;;;5043716;28;88144;-65
2021/11/16 02:01:37;;;;;;;;;;;6.70;71.70;;;;;;5041352;28;88019;-65
2021/11/16 02:04:04;;;;;;;;;;;6.70;72.00;;;;;;5040346;27;87162;-65
2021/11/16 02:06:32;;;;;;;;;;;6.70;71.80;;;;;;5039221;27;88023;-65
2021/11/16 02:08:58;;;;;;;;;;;6.80;71.60;;;;;;5037158;28;87266;-65
2021/11/16 02:11:24;;;;;;;;;;;6.70;71.70;;;;;;5037619;27;87106;-65
2021/11/16 02:13:50;;;;;;;;;;;6.70;71.80;;;;;;5037637;27;87629;-65
2021/11/16 02:16:16;;;;;;;;;;;6.70;71.80;;;;;;5038733;27;86422;-65
2021/11/16 02:18:42;;;;;;;;;;;6.70;71.70;;;;;;5038789;27;87102;-66
2021/11/16 02:21:08;;;;;;;;;;;6.70;71.80;;;;;;5041003;27;87661;-65
2021/11/16 02:23:34;;;;;;;;;;;6.70;72.00;;;;;;5037527;27;88127;-65
2021/11/16 02:26:00;;;;;;;;;;;6.70;71.90;;;;;;5038639;27;88117;-65
2021/11/16 02:28:26;;;;;;;;;;;6.70;71.80;;;;;;5040131;27;87163;-66
2021/11/16 02:30:54;;;;;;;;;;;6.70;72.50;;;;;;5039508;28;87179;-65
2021/11/16 02:33:19;;;;;;;;;;;6.70;71.90;;;;;;5037361;27;87220;-65
2021/11/16 02:35:45;;;;;;;;;;;6.70;71.90;;;;;;5038761;27;87139;-65
2021/11/16 02:38:11;;;;;;;;;;;6.70;71.90;;;;;;5039535;27;88593;-65
2021/11/16 02:40:36;;;;;;;;;;;6.70;71.80;;;;;;5039769;28;87473;-65
2021/11/16 02:43:02;;;;;;;;;;;6.70;71.80;;;;;;5043026;27;87109;-66
2021/11/16 02:45:28;;;;;;;;;;;6.70;71.60;;;;;;5040580;27;87715;-65
2021/11/16 02:47:54;;;;;;;;;;;6.70;71.80;;;;;;5039570;28;88739;-65
2021/11/16 02:50:20;;;;;;;;;;;6.70;71.80;;;;;;5037029;28;88329;-65
2021/11/16 02:52:46;;;;;;;;;;;6.70;72.00;;;;;;5036848;27;88488;-65
2021/11/16 02:55:11;;;;;;;;;;;6.70;72.00;;;;;;5036466;27;88106;-66
2021/11/16 02:57:37;;;;;;;;;;;6.70;71.80;;;;;;5037158;27;87492;-65
2021/11/16 03:00:05;;;;;;;;;;;6.70;71.70;;;;;;5037794;28;87906;-65
2021/11/16 03:02:31;;;;;;;;;;;6.70;71.70;;;;;;5037054;27;88770;-65
2021/11/16 03:04:56;;;;;;;;;;;6.60;71.90;;;;;;5039952;28;87155;-65
2021/11/16 03:07:30;;;;;;;;;;;6.70;71.70;;;;;;5038453;28;88831;-65
2021/11/16 03:09:55;;;;;;;;;;;6.70;71.80;;;;;;5036523;28;87199;-65
2021/11/16 03:12:21;;;;;;;;;;;6.70;71.90;;;;;;5034683;27;89077;-65
2021/11/16 03:14:47;;;;;;;;;;;6.60;71.90;;;;;;5036317;27;87129;-65
2021/11/16 03:17:12;;;;;;;;;;;6.60;72.00;;;;;;5036814;27;87285;-65
2021/11/16 03:19:38;;;;;;;;;;;6.60;71.80;;;;;;5036700;28;87613;-65
2021/11/16 03:22:04;;;;;;;;;;;6.60;71.90;;;;;;5037983;27;87136;-65
2021/11/16 03:24:35;;;;;;;;;;;6.60;71.70;;;;;;5054817;27;88806;-65
2021/11/16 03:27:04;;;;;;;;;;;6.70;71.80;;;;;;5042053;27;87577;-65
2021/11/16 03:29:31;;;;;;;;;;;6.70;71.60;;;;;;5036718;27;86958;-65
2021/11/16 03:32:06;;;;;;;;;;;6.60;71.70;;;;;;5036558;28;88477;-65
2021/11/16 03:34:32;;;;;;;;;;;6.60;71.80;;;;;;5037499;27;87101;-65
2021/11/16 03:36:57;;;;;;;;;;;6.60;71.70;;;;;;5035894;27;88110;-65
2021/11/16 03:39:23;;;;;;;;;;;6.60;72.10;;;;;;5037322;28;87762;-66
2021/11/16 03:41:49;;;;;;;;;;;6.60;71.90;;;;;;5038699;28;87134;-65
2021/11/16 03:44:14;;;;;;;;;;;6.60;71.90;;;;;;5039148;27;87522;-65
2021/11/16 03:46:40;;;;;;;;;;;6.60;71.80;;;;;;5038898;27;88134;-65
2021/11/16 03:49:05;;;;;;;;;;;6.60;72.10;;;;;;5042171;27;87214;-65
2021/11/16 03:51:31;;;;;;;;;;;6.60;72.10;;;;;;5039286;27;88091;-65
2021/11/16 03:53:57;;;;;;;;;;;6.60;72.10;;;;;;5039631;27;86471;-65
2021/11/16 03:56:23;;;;;;;;;;;6.60;72.10;;;;;;5037083;28;88417;-65
2021/11/16 03:58:48;;;;;;;;;;;6.60;71.80;;;;;;5034613;28;89901;-65
2021/11/16 04:01:15;;;;;;;;;;;6.60;71.80;;;;;;5037172;27;89018;-65
2021/11/16 04:03:41;;;;;;;;;;;6.60;71.80;;;;;;5040065;28;88481;-65
2021/11/16 04:06:07;;;;;;;;;;;6.60;71.80;;;;;;5038046;27;88591;-65
2021/11/16 04:08:32;;;;;;;;;;;6.60;71.90;;;;;;5039086;27;87932;-65
2021/11/16 04:10:58;;;;;;;;;;;6.60;71.90;;;;;;5034877;28;87647;-65
2021/11/16 04:13:23;;;;;;;;;;;6.60;72.10;;;;;;5035628;28;87152;-65
2021/11/16 04:15:50;;;;;;;;;;;6.60;71.90;;;;;;5036815;28;87488;-65
2021/11/16 04:18:17;;;;;;;;;;;6.60;71.80;;;;;;5036545;28;87537;-65
2021/11/16 04:20:44;;;;;;;;;;;6.50;72.10;;;;;;5039923;27;88700;-65
2021/11/16 04:23:10;;;;;;;;;;;6.50;71.70;;;;;;5042217;27;87712;-65
2021/11/16 04:25:38;;;;;;;;;;;6.50;72.00;;;;;;5040134;28;88670;-65
2021/11/16 04:28:04;;;;;;;;;;;6.50;72.10;;;;;;5040368;27;87138;-66
2021/11/16 04:30:31;;;;;;;;;;;6.60;72.10;;;;;;5042513;27;87410;-65
2021/11/16 04:32:57;;;;;;;;;;;6.50;72.00;;;;;;5040123;27;87226;-65
2021/11/16 04:35:22;;;;;;;;;;;6.60;71.90;;;;;;5039091;27;87551;-65
2021/11/16 04:37:49;;;;;;;;;;;6.50;71.70;;;;;;5037609;27;88367;-65
2021/11/16 04:40:21;;;;;;;;;;;6.60;72.00;;;;;;5042531;28;87158;-65
2021/11/16 04:42:46;;;;;;;;;;;6.50;71.90;;;;;;5042924;28;87979;-65
2021/11/16 04:45:17;;;;;;;;;;;6.50;72.10;;;;;;5042109;27;88166;-65
2021/11/16 04:47:53;;;;;;;;;;;6.50;72.50;;;;;;5040975;27;87948;-65
2021/11/16 05:03:41;;;;;;;;;;;6.50;72.40;;;;;;5040778;28;87177;-65
2021/11/16 05:06:06;;;;;;;;;;;6.40;72.40;;;;;;5040058;28;88553;-65
2021/11/16 05:08:32;;;;;;;;;;;6.40;72.30;;;;;;5041087;27;86411;-65
2021/11/16 05:10:58;;;;;;;;;;;6.40;72.10;;;;;;5039625;27;87165;-65
2021/11/16 05:13:23;;;;;;;;;;;6.40;71.90;;;;;;5038395;28;87580;-65
2021/11/16 05:15:50;;;;;;;;;;;6.40;72.20;;;;;;5040022;28;88046;-65
2021/11/16 05:18:16;;;;;;;;;;;6.40;72.60;;;;;;5042274;28;87627;-65
2021/11/16 05:20:42;;;;;;;;;;;6.40;72.20;;;;;;5041993;28;87144;-65
2021/11/16 05:23:09;;;;;;;;;;;6.40;72.00;;;;;;5042164;28;87499;-65
2021/11/16 05:25:35;;;;;;;;;;;6.40;72.50;;;;;;5039857;28;88197;-65
2021/11/16 05:28:02;;;;;;;;;;;6.40;71.90;;;;;;5041347;28;87165;-65
2021/11/16 05:30:29;;;;;;;;;;;6.40;72.30;;;;;;5039446;27;87146;-65
2021/11/16 05:32:56;;;;;;;;;;;6.40;72.40;;;;;;5039450;28;88780;-65
2021/11/16 05:35:21;;;;;;;;;;;6.40;72.60;;;;;;5037940;28;87324;-65
2021/11/16 05:37:47;;;;;;;;;;;6.40;72.40;;;;;;5040525;27;87132;-65
2021/11/16 05:40:12;;;;;;;;;;;6.30;72.00;;;;;;5037010;28;88186;-65
2021/11/16 05:42:38;;;;;;;;;;;6.40;72.40;;;;;;5039699;27;88490;-66
2021/11/16 05:45:04;;;;;;;;;;;6.40;72.50;;;;;;5038852;27;88105;-65
2021/11/16 05:47:30;;;;;;;;;;;6.40;72.40;;;;;;5038585;27;87139;-65
2021/11/16 05:49:56;;;;;;;;;;;6.40;72.30;;;;;;5039389;27;88028;-65
2021/11/16 05:52:23;;;;;;;;;;;6.40;72.30;;;;;;5039747;28;88571;-65
2021/11/16 05:54:51;;;;;;;;;;;6.30;72.30;;;;;;5037265;27;87203;-65
2021/11/16 05:57:16;;;;;;;;;;;6.30;73.00;;;;;;5044726;28;86475;-65
2021/11/16 05:59:42;;;;;;;;;;;6.30;72.30;;;;;;5039094;28;88438;-65
2021/11/16 06:02:09;;;;;;;;;;;6.30;72.20;;;;;;5037171;28;87197;-65
2021/11/16 06:04:34;;;;;;;;;;;6.30;72.50;;;;;;5036382;27;90177;-65
2021/11/16 06:07:01;;;;;;;;;;;6.30;72.40;;;;;;5037602;28;87137;-65
2021/11/16 06:09:27;;;;;;;;;;;6.30;72.50;;;;;;5037899;27;88025;-65
2021/11/16 06:11:54;;;;;;;;;;;6.30;72.70;;;;;;5036287;28;87919;-65
2021/11/16 06:14:19;;;;;;;;;;;6.30;72.70;;;;;;5037815;27;88591;-65
2021/11/16 06:16:45;;;;;;;;;;;6.30;72.70;;;;;;5036989;27;87335;-65
2021/11/16 06:19:11;;;;;;;;;;;6.20;72.50;;;;;;5040693;27;88121;-65
2021/11/16 06:21:36;;;;;;;;;;;6.30;72.50;;;;;;5039917;27;87680;-65
2021/11/16 06:24:02;;;;;;;;;;;6.30;72.70;;;;;;5039126;27;88069;-65
2021/11/16 06:26:32;;;;;;;;;;;6.30;72.70;;;;;;5038738;28;87176;-65
2021/11/16 06:28:58;;;;;;;;;;;6.20;72.70;;;;;;5040109;27;89227;-65
2021/11/16 06:31:26;;;;;;;;;;;6.30;72.50;;;;;;5039823;28;88384;-65
2021/11/16 06:33:52;;;;;;;;;;;6.30;72.60;;;;;;5039716;28;87248;-65
2021/11/16 06:36:17;;;;;;;;;;;6.20;72.60;;;;;;5040329;27;87120;-65
2021/11/16 06:38:43;;;;;;;;;;;6.20;72.70;;;;;;5040915;27;88383;-65
2021/11/16 06:41:09;;;;;;;;;;;6.30;72.60;;;;;;5041554;27;87979;-65
2021/11/16 06:43:35;;;;;;;;;;;6.20;72.70;;;;;;5041009;28;88596;-65
2021/11/16 06:46:03;;;;;;;;;;;6.30;72.70;;;;;;5040384;27;86501;-65
2021/11/16 06:48:29;;;;;;;;;;;6.30;72.50;;;;;;5036199;27;87856;-65
2021/11/16 06:50:55;;;;;;;;;;;6.30;72.60;;;;;;5040613;27;87935;-65
2021/11/16 06:53:23;;;;;;;;;;;6.30;73.10;;;;;;5039168;27;88177;-65
2021/11/16 06:55:49;;;;;;;;;;;6.30;72.90;;;;;;5040693;28;88396;-65
2021/11/16 06:58:15;;;;;;;;;;;6.30;72.60;;;;;;5039949;28;87129;-65
2021/11/16 07:00:40;;;;;;;;;;;6.30;72.60;;;;;;5039617;28;87121;-65
2021/11/16 07:03:06;;;;;;;;;;;6.30;72.60;;;;;;5041547;28;87765;-65
2021/11/16 07:05:31;;;;;;;;;;;6.30;72.70;;;;;;5040252;28;87120;-65
2021/11/16 07:07:57;;;;;;;;;;;6.30;72.70;;;;;;5040459;28;88297;-65
2021/11/16 07:10:25;;;;;;;;;;;6.30;72.70;;;;;;5040186;27;87029;-65
2021/11/16 07:12:52;;;;;;;;;;;6.30;72.90;;;;;;5035780;28;87193;-65
2021/11/16 07:15:21;;;;;;;;;;;6.30;73.00;;;;;;5035925;28;87208;-65
2021/11/16 07:17:49;;;;;;;;;;;6.30;73.00;;;;;;5037929;27;88093;-65
2021/11/16 07:20:15;;;;;;;;;;;6.30;72.70;;;;;;5036233;28;87175;-65
2021/11/16 07:22:41;;;;;;;;;;;6.30;73.00;;;;;;5037033;27;87392;-65
2021/11/16 07:25:08;;;;;;;;;;;6.30;73.10;;;;;;5040286;27;87633;-65
2021/11/16 07:27:34;;;;;;;;;;;6.30;72.80;;;;;;5036191;27;88886;-65
2021/11/16 07:29:59;;;;;;;;;;;6.30;72.90;;;;;;5036129;28;87196;-65
2021/11/16 07:32:28;;;;;;;;;;;6.30;72.90;;;;;;5035879;28;87162;-65
2021/11/16 07:34:57;;;;;;;;;;;6.30;73.00;;;;;;5038047;27;87411;-65
2021/11/16 07:37:27;;;;;;;;;;;6.30;72.90;;;;;;5038249;28;88163;-65
2021/11/16 07:40:19;;;;;;;;;;;6.30;72.90;;;;;;5039154;28;87141;-65
2021/11/16 07:42:52;;;;;;;;;;;6.30;73.00;;;;;;5033348;28;88174;-65
2021/11/16 07:45:19;;;;;;;;;;;6.30;72.90;;;;;;5035864;27;87915;-65
2021/11/16 07:47:50;;;;;;;;;;;6.30;73.10;;;;;;5042741;27;88343;-66
2021/11/16 07:50:30;;;;;;;;;;;6.30;72.90;;;;;;5039670;27;88261;-65
2021/11/16 07:53:11;;;;;;;;;;;6.30;73.10;;;;;;5037287;28;88452;-65
2021/11/16 07:55:38;;;;;;;;;;;6.30;72.90;;;;;;5039983;28;88040;-65
2021/11/16 07:58:05;;;;;;;;;;;6.30;72.90;;;;;;5039235;28;88410;-65
2021/11/16 08:00:32;;;;;;;;;;;6.40;73.70;;;;;;5039498;27;86479;-65
2021/11/16 08:03:03;;;;;;;;;;;6.30;73.10;;;;;;5043676;27;87181;-65
2021/11/16 08:05:50;;;;;;;;;;;6.30;73.00;;;;;;5043424;28;87774;-65
2021/11/16 08:08:24;;;;;;;;;;;6.30;73.00;;;;;;5044641;27;88076;-65
2021/11/16 08:11:07;;;;;;;;;;;6.30;72.90;;;;;;5042029;27;88610;-64
2021/11/16 08:13:34;;;;;;;;;;;6.30;72.90;;;;;;5040038;27;87141;-65
2021/11/16 08:16:07;;;;;;;;;;;6.30;73.00;;;;;;5041822;28;88601;-65
2021/11/16 08:18:55;;;;;;;;;;;6.40;73.10;;;;;;5040158;27;90072;-65
2021/11/16 08:21:20;;;;;;;;;;;6.40;72.90;;;;;;5043704;27;87545;-65
2021/11/16 08:23:46;;;;;;;;;;;6.40;72.90;;;;;;5042865;28;88043;-65
2021/11/16 08:26:11;;;;;;;;;;;6.50;72.70;;;;;;5043381;28;86535;-65
2021/11/16 08:28:37;;;;;;;;;;;6.40;72.60;;;;;;5041346;28;88440;-65
2021/11/16 08:31:03;;;;;;;;;;;6.60;73.10;;;;;;5042366;28;89667;-65
2021/11/16 08:33:28;;;;;;;;;;;6.60;72.40;;;;;;5042057;27;89226;-64
2021/11/16 08:35:54;;;;;;;;;;;6.60;72.70;;;;;;5039348;28;88557;-64
2021/11/16 08:38:19;;;;;;;;;;;6.60;72.50;;;;;;5039396;27;88136;-65
2021/11/16 08:40:46;;;;;;;;;;;6.60;72.90;;;;;;5040400;27;88945;-64
2021/11/16 08:43:17;;;;;;;;;;;6.50;72.70;;;;;;5041920;27;88758;-64
2021/11/16 08:45:49;;;;;;;;;;;6.60;72.90;;;;;;5037999;27;88715;-65
2021/11/16 08:48:19;;;;;;;;;;;6.60;72.60;;;;;;5039574;27;88599;-64
2021/11/16 08:50:56;;;;;;;;;;;6.50;72.80;;;;;;5039459;27;87141;-64
2021/11/16 08:53:24;;;;;;;;;;;6.60;72.80;;;;;;5041433;27;87863;-65
2021/11/16 08:55:50;;;;;;;;;;;6.60;72.60;;;;;;5042421;27;87629;-65
2021/11/16 08:58:16;;;;;;;;;;;6.50;73.10;;;;;;5040801;27;89239;-64
2021/11/16 09:00:42;;;;;;;;;;;6.60;73.20;;;;;;5041852;27;87107;-65
2021/11/16 09:03:11;;;;;;;;;;;6.50;72.90;;;;;;5040957;28;87458;-63
2021/11/16 09:05:43;;;;;;;;;;;6.50;73.50;;;;;;5036363;27;89541;-62
2021/11/16 09:08:31;;;;;;;;;;;6.50;74.80;;;;;;5057540;27;87192;-63
2021/11/16 09:10:58;;;;;;;;;;;6.50;74.20;;;;;;5040224;27;88634;-63
2021/11/16 09:13:26;;;;;;;;;;;6.50;74.90;;;;;;5038373;27;88005;-63
2021/11/16 09:15:54;;;;;;;;;;;6.60;74.00;;;;;;5042535;27;87653;-63
2021/11/16 09:18:22;;;;;;;;;;;6.70;74.30;;;;;;5039731;27;89866;-63
2021/11/16 09:21:01;;;;;;;;;;;6.80;74.20;;;;;;5038466;27;87929;-65
2021/11/16 09:23:30;;;;;;;;;;;6.80;74.70;;;;;;5039763;27;89068;-61
2021/11/16 09:26:07;;;;;;;;;;;6.70;77.20;;;;;;5039477;27;88861;-61
2021/11/16 09:28:35;;;;;;;;;;;6.70;75.10;;;;;;5038254;27;88190;-61
2021/11/16 09:31:17;;;;;;;;;;;6.70;74.50;;;;;;5039001;28;87196;-61
2021/11/16 09:33:42;;;;;;;;;;;6.70;74.70;;;;;;5037682;27;89434;-61
2021/11/16 09:36:08;;;;;;;;;;;6.80;74.20;;;;;;5037414;27;87148;-61
2021/11/16 09:38:41;;;;;;;;;;;6.70;74.00;;;;;;5040117;27;87140;-61
2021/11/16 09:41:07;;;;;;;;;;;6.70;74.00;;;;;;5042031;27;86424;-61
2021/11/16 09:43:33;;;;;;;;;;;6.80;73.90;;;;;;5039680;27;88715;-61
2021/11/16 09:46:10;;;;;;;;;;;6.80;73.70;;;;;;5038387;27;89710;-60
2021/11/16 09:48:37;;;;;;;;;;;6.90;73.70;;;;;;5037364;27;89735;-61
2021/11/16 09:51:13;;;;;;;;;;;6.90;74.50;;;;;;5039485;28;88847;-61
2021/11/16 09:53:40;;;;;;;;;;;6.90;75.00;;;;;;5038263;27;87710;-61
2021/11/16 09:56:15;;;;;;;;;;;7.00;74.10;;;;;;5037973;27;87107;-60
2021/11/16 09:58:41;;;;;;;;;;;7.00;74.20;;;;;;5038527;27;87581;-64
2021/11/16 10:01:07;;;;;;;;;;;7.00;74.60;;;;;;5041887;27;89569;-61
2021/11/16 10:03:33;;;;;;;;;;;6.90;74.70;;;;;;5040884;27;87868;-62
2021/11/16 10:06:00;;;;;;;;;;;6.90;74.60;;;;;;5040465;27;88243;-63
2021/11/16 10:08:26;;;;;;;;;;;7.00;75.00;;;;;;5040746;27;87116;-63
2021/11/16 10:10:53;;;;;;;;;;;7.00;74.80;;;;;;5038163;27;87171;-59
2021/11/16 10:13:24;;;;;;;;;;;7.00;74.50;;;;;;5036517;27;90304;-65
2021/11/16 10:15:51;;;;;;;;;;;7.00;74.90;;;;;;5039953;27;87247;-62
2021/11/16 10:18:17;;;;;;;;;;;7.10;75.80;;;;;;5038551;27;88808;-65
2021/11/16 10:20:45;;;;;;;;;;;7.10;75.30;;;;;;5040248;27;88103;-61
2021/11/16 10:23:12;;;;;;;;;;;7.10;75.40;;;;;;5037755;27;87681;-62
2021/11/16 10:25:39;;;;;;;;;;;7.20;75.40;;;;;;5038442;28;88986;-64
2021/11/16 10:28:06;;;;;;;;;;;7.20;75.90;;;;;;5040713;27;87120;-65
2021/11/16 10:30:33;;;;;;;;;;;7.30;75.90;;;;;;5039440;28;87373;-54
2021/11/16 10:33:12;;;;;;;;;;;7.30;75.30;;;;;;5038662;27;89160;-63
2021/11/16 10:35:39;;;;;;;;;;;7.30;75.70;;;;;;5038314;27;87938;-63
2021/11/16 10:38:07;;;;;;;;;;;7.30;75.50;;;;;;5038715;28;88118;-63
2021/11/16 10:40:33;;;;;;;;;;;7.30;75.50;;;;;;5039292;28;89511;-62
2021/11/16 10:43:00;;;;;;;;;;;7.40;75.40;;;;;;5042052;27;87168;-63
2021/11/16 10:45:27;;;;;;;;;;;7.40;75.20;;;;;;5037482;27;88222;-63
2021/11/16 10:47:57;;;;;;;;;;;7.40;74.50;;;;;;5040085;27;87647;-62
2021/11/16 10:50:28;;;;;;;;;;;7.40;74.40;;;;;;5036505;28;88128;-63
2021/11/16 10:52:59;;;;;;;;;;;7.50;74.20;;;;;;5038178;27;89325;-62
2021/11/16 10:55:43;;;;;;;;;;;7.50;74.30;;;;;;5038732;27;88108;-62
2021/11/16 10:58:12;;;;;;;;;;;7.50;73.70;;;;;;5036401;27;87089;-62
2021/11/16 11:00:40;;;;;;;;;;;7.50;74.00;;;;;;5039631;28;88415;-62
2021/11/16 11:03:25;;;;;;;;;;;7.50;74.00;;;;;;5036617;27;88147;-66
2021/11/16 11:05:51;;;;;;;;;;;7.40;74.40;;;;;;5041672;27;87965;-63
2021/11/16 11:08:31;;;;;;;;;;;7.40;74.60;;;;;;5038592;28;87139;-63
2021/11/16 11:10:57;;;;;;;;;;;7.50;74.50;;;;;;5040830;27;87183;-63
2021/11/16 11:13:26;;;;;;;;;;;7.50;74.30;;;;;;5038072;28;88510;-63
2021/11/16 11:15:52;;;;;;;;;;;7.50;74.00;;;;;;5036189;28;87214;-62
2021/11/16 11:18:34;;;;;;;;;;;7.50;73.90;;;;;;5035983;27;87163;-63
2021/11/16 11:21:01;;;;;;;;;;;7.50;73.80;;;;;;5040772;27;86883;-63
2021/11/16 11:23:32;;;;;;;;;;;7.50;73.70;;;;;;5037640;27;87281;-64
2021/11/16 11:26:18;;;;;;;;;;;7.50;75.50;;;;;;5036569;28;87627;-62
2021/11/16 11:28:53;;;;;;;;;;;7.50;74.40;;;;;;5040459;27;90736;-62
2021/11/16 11:31:25;;;;;;;;;;;7.50;74.10;;;;;;5041612;27;90072;-63
2021/11/16 11:33:51;;;;;;;;;;;7.50;74.00;;;;;;5038987;27;87707;-63
2021/11/16 11:36:26;;;;;;;;;;;7.50;73.60;;;;;;5039967;27;87231;-62
2021/11/16 11:38:52;;;;;;;;;;;7.50;73.40;;;;;;5039706;27;88747;-63
2021/11/16 11:41:20;;;;;;;;;;;7.50;73.60;;;;;;5039066;27;88366;-70
2021/11/16 11:43:48;;;;;;;;;;;7.60;73.80;;;;;;5041882;28;87838;-71
2021/11/16 11:46:13;;;;;;;;;;;7.60;73.70;;;;;;5042994;27;87331;-65
2021/11/16 11:48:39;;;;;;;;;;;7.60;73.50;;;;;;5043418;28;87205;-63
2021/11/16 11:51:11;;;;;;;;;;;7.60;73.90;;;;;;5044477;28;88988;-64
2021/11/16 11:53:37;;;;;;;;;;;7.60;74.20;;;;;;5041393;27;89542;-61
2021/11/16 11:56:07;;;;;;;;;;;7.60;74.00;;;;;;5042034;27;87230;-74
2021/11/16 11:58:35;;;;;;;;;;;7.60;73.90;;;;;;5039167;27;87759;-64
2021/11/16 12:01:06;;;;;;;;;;;7.70;74.20;;;;;;5039679;28;88044;-58
2021/11/16 12:03:32;;;;;;;;;;;7.70;73.90;;;;;;5039357;27;87104;-51
2021/11/16 12:05:58;;;;;;;;;;;7.70;73.80;;;;;;5039875;28;88404;-61
2021/11/16 12:08:25;;;;;;;;;;;7.80;73.80;;;;;;5039716;27;88031;-50
2021/11/16 12:10:51;;;;;;;;;;;7.70;73.50;;;;;;5038728;27;87093;-56
2021/11/16 12:13:21;;;;;;;;;;;7.80;73.70;;;;;;5042702;27;87182;-54
2021/11/16 12:16:07;;;;;;;;;;;7.90;73.00;;;;;;5041456;27;87172;-61
2021/11/16 12:18:56;;;;;;;;;;;7.80;73.00;;;;;;5041006;27;88833;-63
2021/11/16 12:21:29;;;;;;;;;;;7.80;72.90;;;;;;5038513;27;87293;-55
2021/11/16 12:23:58;;;;;;;;;;;7.80;72.90;;;;;;5042216;28;88183;-54
2021/11/16 12:26:24;;;;;;;;;;;7.90;72.80;;;;;;5040073;28;88591;-63
2021/11/16 12:28:50;;;;;;;;;;;7.90;72.70;;;;;;5039791;27;87142;-57
2021/11/16 12:31:24;;;;;;;;;;;7.90;73.20;;;;;;5041038;27;87117;-58
2021/11/16 12:33:50;;;;;;;;;;;7.90;73.20;;;;;;5040876;28;88685;-59
2021/11/16 12:36:35;;;;;;;;;;;8.00;73.10;;;;;;5043389;28;86423;-60
2021/11/16 12:39:21;;;;;;;;;;;8.00;72.40;;;;;;5040820;28;87155;-62
2021/11/16 12:41:51;;;;;;;;;;;8.00;72.50;;;;;;5040798;28;89277;-67
2021/11/16 12:44:18;;;;;;;;;;;8.00;72.20;;;;;;5037431;27;88601;-60
2021/11/16 12:47:00;;;;;;;;;;;8.10;72.50;;;;;;5040950;28;88348;-63
2021/11/16 12:49:54;;;;;;;;;;;8.10;72.90;;;;;;5042203;28;88381;-57
2021/11/16 12:52:23;;;;;;;;;;;8.10;72.40;;;;;;5036788;28;87204;-64
2021/11/16 12:54:49;;;;;;;;;;;8.10;72.60;;;;;;5042426;27;87300;-63
2021/11/16 12:57:15;;;;;;;;;;;8.10;72.70;;;;;;5044112;27;88665;-63
2021/11/16 12:59:44;;;;;;;;;;;8.00;72.90;;;;;;5041948;27;87774;-63
2021/11/16 13:02:21;;;;;;;;;;;8.00;73.10;;;;;;5037971;28;88684;-64
2021/11/16 13:04:50;;;;;;;;;;;8.10;73.00;;;;;;5042372;28;87127;-64
2021/11/16 13:07:27;;;;;;;;;;;8.10;73.10;;;;;;5038139;27;88931;-63
2021/11/16 13:10:19;;;;;;;;;;;8.00;73.10;;;;;;5036756;27;88753;-64
2021/11/16 13:12:50;;;;;;;;;;;8.10;72.90;;;;;;5034735;28;88608;-65
2021/11/16 13:15:24;;;;;;;;;;;8.10;73.00;;;;;;5041677;28;88542;-64
2021/11/16 13:17:52;;;;;;;;;;;8.10;72.90;;;;;;5038106;27;87245;-64
2021/11/16 13:20:44;;;;;;;;;;;8.10;72.90;;;;;;5043191;28;87150;-64
2021/11/16 13:23:20;;;;;;;;;;;8.10;72.90;;;;;;5034721;28;89935;-65
2021/11/16 13:25:49;;;;;;;;;;;8.10;72.90;;;;;;5042157;27;87152;-64
2021/11/16 13:30:53;;;;;;;;;;;8.10;72.80;;;;;;5037411;28;88063;-65
2021/11/16 13:33:37;;;;;;;;;;;8.10;72.80;;;;;;5037667;27;87122;-64
2021/11/16 13:36:06;;;;;;;;;;;8.10;72.70;;;;;;5036467;28;88133;-64
2021/11/16 13:38:50;;;;;;;;;;;8.10;72.80;;;;;;5041110;27;87184;-63
2021/11/16 13:41:34;;;;;;;;;;;8.10;72.90;;;;;;5037945;28;87213;-65
2021/11/16 13:44:19;;;;;;;;;;;8.10;73.10;;;;;;5043948;28;88004;-62
2021/11/16 13:46:45;;;;;;;;;;;8.10;73.00;;;;;;5036989;28;87136;-65
2021/11/16 13:49:11;;;;;;;;;;;8.10;73.70;;;;;;5040741;27;88790;-64
2021/11/16 13:51:37;;;;;;;;;;;8.40;74.10;;;;;;5039353;27;87550;-61
2021/11/16 13:54:06;;;;;;;;;;;9.00;73.00;;;;;;5041044;27;86447;-61
2021/11/16 13:56:32;;;;;;;;;;;9.70;71.30;;;;;;5037203;27;88576;-62
2021/11/16 13:58:58;;;;;;;;;;;10.30;69.80;;;;;;5036636;28;88589;-66
2021/11/16 14:01:31;;;;;;;;;;;10.70;68.90;;;;;;5036509;28;88123;-67
2021/11/16 14:04:10;;;;;;;;;;;10.80;67.50;;;;;;5040954;27;88942;-59
2021/11/16 14:06:36;;;;;;;;;;;11.00;67.40;;;;;;5040263;28;87637;-63
2021/11/16 14:09:18;;;;;;;;;;;11.60;66.50;;;;;;5038639;27;87158;-56
2021/11/16 14:11:49;;;;;;;;;;;11.90;65.70;;;;;;5037986;27;89479;-60
2021/11/16 14:14:16;;;;;;;;;;;12.30;65.00;;;;;;5041101;28;87923;-61
2021/11/16 14:35:15;;;;;;;;;;;13.70;61.70;;;;;;5041482;27;80353;-50
2021/11/16 14:37:48;;;;;;;;;;;14.20;61.80;;;;;;5038851;28;80395;-59
2021/11/16 14:40:18;;;;;;;;;;;14.30;61.60;;;;;;5039281;27;82256;-57
2021/11/16 14:42:44;;;;;;;;;;;14.40;61.30;;;;;;5024873;27;82926;-66
2021/11/16 14:45:09;;;;;;;;;;;14.50;60.80;;;;;;5019868;28;80487;-67
2021/11/16 14:47:38;;;;;;;;;;;14.60;60.60;;;;;;5021124;28;81067;-60
2021/11/16 14:50:08;;;;;;;;;;;14.80;60.60;;;;;;5016378;28;82538;-62
2021/11/16 14:52:34;;;;;;;;;;;14.90;60.20;;;;;;5017457;28;80308;-67
2021/11/16 14:55:05;;;;;;;;;;;15.00;60.30;;;;;;5020201;28;80914;-59
2021/11/16 14:57:32;;;;;;;;;;;15.10;60.20;;;;;;5017260;28;80341;-64
2021/11/16 15:00:10;;;;;;;;;;;15.00;60.10;;;;;;5020657;28;82149;-64
2021/11/16 15:02:36;;;;;;;;;;;14.20;61.60;;;;;;5019275;28;80764;-64
2021/11/16 15:05:01;;;;;;;;;;;13.70;63.30;;;;;;5020932;28;80358;-64
2021/11/16 15:07:27;;;;;;;;;;;13.30;64.10;;;;;;5020248;28;80456;-64
2021/11/16 15:09:54;;;;;;;;;;;13.00;64.60;;;;;;5019867;28;81696;-63
2021/11/16 15:12:20;;;;;;;;;;;12.80;65.20;;;;;;5018071;28;80379;-63